sensor_id;sensor_type;location;lat;lon;timestamp;pressure;altitude;pressure_sealevel;temperature;humidity
65376;BME280;51976;47.332;9.404;2023-02-03T00:00:22;94003.41;;;3.35;63.04
65376;BME280;51976;47.332;9.404;2023-02-03T00:02:48;94023.06;;;3.41;63.05
65376;BME280;51976;47.332;9.404;2023-02-03T00:05:13;94016.31;;;3.32;63.05
65376;BME280;51976;47.332;9.404;2023-02-03T00:07:40;94020.88;;;3.18;63.18
65376;BME280;51976;47.332;9.404;2023-02-03T00:10:06;94040.50;;;3.37;63.17
65376;BME280;51976;47.332;9.404;2023-02-03T00:12:32;94021.28;;;3.15;63.29
65376;BME280;51976;47.332;9.404;2023-02-03T00:14:58;94039.31;;;3.26;63.56
65376;BME280;51976;47.332;9.404;2023-02-03T00:17:23;94028.44;;;3.28;63.84
65376;BME280;51976;47.332;9.404;2023-02-03T00:19:48;93944.31;;;2.81;63.59
65376;BME280;51976;47.332;9.404;2023-02-03T00:22:14;94037.88;;;3.24;64.01
65376;BME280;51976;47.332;9.404;2023-02-03T00:24:39;94019.59;;;3.34;63.73
65376;BME280;51976;47.332;9.404;2023-02-03T00:27:05;94015.91;;;3.35;63.77
65376;BME280;51976;47.332;9.404;2023-02-03T00:29:30;93994.59;;;3.28;63.63
65376;BME280;51976;47.332;9.404;2023-02-03T00:31:55;93995.81;;;3.32;63.38
65376;BME280;51976;47.332;9.404;2023-02-03T00:34:27;93999.91;;;3.42;63.26
65376;BME280;51976;47.332;9.404;2023-02-03T00:36:52;93977.78;;;3.34;63.19
65376;BME280;51976;47.332;9.404;2023-02-03T00:39:17;94002.34;;;3.43;62.97
65376;BME280;51976;47.332;9.404;2023-02-03T00:41:43;94018.34;;;3.43;62.87
65376;BME280;51976;47.332;9.404;2023-02-03T00:44:08;93994.66;;;3.15;63.08
65376;BME280;51976;47.332;9.404;2023-02-03T00:46:33;93997.09;;;3.10;63.06
65376;BME280;51976;47.332;9.404;2023-02-03T00:49:01;94010.16;;;3.38;63.10
65376;BME280;51976;47.332;9.404;2023-02-03T00:51:26;94013.00;;;3.43;62.90
65376;BME280;51976;47.332;9.404;2023-02-03T00:53:52;94007.91;;;3.35;63.00
65376;BME280;51976;47.332;9.404;2023-02-03T00:56:17;93967.41;;;3.06;62.29
65376;BME280;51976;47.332;9.404;2023-02-03T00:58:42;94021.44;;;3.40;62.71
65376;BME280;51976;47.332;9.404;2023-02-03T01:01:09;94022.66;;;3.44;62.65
65376;BME280;51976;47.332;9.404;2023-02-03T01:03:34;94010.53;;;3.48;62.17
65376;BME280;51976;47.332;9.404;2023-02-03T01:06:15;93914.41;;;2.85;62.32
65376;BME280;51976;47.332;9.404;2023-02-03T01:08:41;94003.38;;;3.49;62.02
65376;BME280;51976;47.332;9.404;2023-02-03T01:11:12;93968.41;;;3.19;62.10
65376;BME280;51976;47.332;9.404;2023-02-03T01:13:38;94012.81;;;3.38;62.04
65376;BME280;51976;47.332;9.404;2023-02-03T01:16:08;94014.22;;;3.47;61.69
65376;BME280;51976;47.332;9.404;2023-02-03T01:18:34;94016.50;;;3.44;61.70
65376;BME280;51976;47.332;9.404;2023-02-03T01:21:11;94014.00;;;3.55;61.83
65376;BME280;51976;47.332;9.404;2023-02-03T01:23:37;94009.31;;;3.44;61.63
65376;BME280;51976;47.332;9.404;2023-02-03T01:26:05;93998.66;;;3.37;61.55
65376;BME280;51976;47.332;9.404;2023-02-03T01:28:31;94021.41;;;3.47;61.31
65376;BME280;51976;47.332;9.404;2023-02-03T01:30:56;94011.78;;;3.46;61.01
65376;BME280;51976;47.332;9.404;2023-02-03T01:33:22;94015.25;;;3.53;60.97
65376;BME280;51976;47.332;9.404;2023-02-03T01:35:47;94005.78;;;3.57;60.27
65376;BME280;51976;47.332;9.404;2023-02-03T01:38:13;94007.19;;;3.59;60.29
65376;BME280;51976;47.332;9.404;2023-02-03T01:40:42;93995.56;;;3.47;60.25
65376;BME280;51976;47.332;9.404;2023-02-03T01:43:09;93985.53;;;3.49;60.00
65376;BME280;51976;47.332;9.404;2023-02-03T01:45:34;94010.88;;;3.65;59.40
65376;BME280;51976;47.332;9.404;2023-02-03T01:48:00;93971.19;;;3.37;59.55
65376;BME280;51976;47.332;9.404;2023-02-03T01:50:31;94010.06;;;3.58;59.54
65376;BME280;51976;47.332;9.404;2023-02-03T01:53:02;93979.00;;;3.38;59.15
65376;BME280;51976;47.332;9.404;2023-02-03T01:55:35;94013.16;;;3.61;59.58
65376;BME280;51976;47.332;9.404;2023-02-03T01:58:06;94011.94;;;3.57;59.36
65376;BME280;51976;47.332;9.404;2023-02-03T02:00:34;94001.94;;;3.46;59.58
65376;BME280;51976;47.332;9.404;2023-02-03T02:03:01;93997.63;;;3.52;59.41
65376;BME280;51976;47.332;9.404;2023-02-03T02:05:42;94000.03;;;3.60;59.42
65376;BME280;51976;47.332;9.404;2023-02-03T02:08:11;94009.84;;;3.66;58.92
65376;BME280;51976;47.332;9.404;2023-02-03T02:10:38;93972.22;;;3.36;59.25
65376;BME280;51976;47.332;9.404;2023-02-03T02:13:03;93959.75;;;3.30;59.28
65376;BME280;51976;47.332;9.404;2023-02-03T02:15:51;94031.78;;;3.68;58.89
65376;BME280;51976;47.332;9.404;2023-02-03T02:18:34;94037.19;;;3.48;59.94
65376;BME280;51976;47.332;9.404;2023-02-03T02:21:22;94022.03;;;3.42;60.55
65376;BME280;51976;47.332;9.404;2023-02-03T02:24:11;94015.91;;;3.35;60.56
65376;BME280;51976;47.332;9.404;2023-02-03T02:26:58;94032.28;;;3.45;60.68
65376;BME280;51976;47.332;9.404;2023-02-03T02:30:09;94035.56;;;3.47;60.63
65376;BME280;51976;47.332;9.404;2023-02-03T02:33:01;94032.22;;;3.58;60.28
65376;BME280;51976;47.332;9.404;2023-02-03T02:35:55;94000.72;;;3.35;60.33
65376;BME280;51976;47.332;9.404;2023-02-03T02:38:48;94015.88;;;3.48;59.66
65376;BME280;51976;47.332;9.404;2023-02-03T02:41:33;94006.47;;;3.39;59.79
65376;BME280;51976;47.332;9.404;2023-02-03T02:44:13;94019.56;;;3.47;59.80
65376;BME280;51976;47.332;9.404;2023-02-03T02:46:47;94026.53;;;3.48;59.87
65376;BME280;51976;47.332;9.404;2023-02-03T02:49:34;94000.53;;;3.37;60.25
65376;BME280;51976;47.332;9.404;2023-02-03T02:52:04;94006.44;;;3.52;60.05
65376;BME280;51976;47.332;9.404;2023-02-03T02:54:32;93981.25;;;3.35;60.23
65376;BME280;51976;47.332;9.404;2023-02-03T02:57:02;93963.41;;;3.42;59.86
65376;BME280;51976;47.332;9.404;2023-02-03T02:59:30;93977.16;;;3.39;59.06
65376;BME280;51976;47.332;9.404;2023-02-03T03:01:56;93975.69;;;3.50;58.67
65376;BME280;51976;47.332;9.404;2023-02-03T03:04:24;93978.66;;;3.73;58.49
65376;BME280;51976;47.332;9.404;2023-02-03T03:06:55;93952.69;;;3.55;58.26
65376;BME280;51976;47.332;9.404;2023-02-03T03:09:32;93983.19;;;3.66;59.12
65376;BME280;51976;47.332;9.404;2023-02-03T03:12:06;93996.53;;;3.66;58.48
65376;BME280;51976;47.332;9.404;2023-02-03T03:14:34;93991.63;;;3.56;58.67
65376;BME280;51976;47.332;9.404;2023-02-03T03:17:03;93989.78;;;3.57;58.99
65376;BME280;51976;47.332;9.404;2023-02-03T03:19:38;93985.47;;;3.56;58.80
65376;BME280;51976;47.332;9.404;2023-02-03T03:22:06;94008.50;;;3.50;59.05
65376;BME280;51976;47.332;9.404;2023-02-03T03:24:38;94006.03;;;3.49;59.05
65376;BME280;51976;47.332;9.404;2023-02-03T03:27:11;94005.19;;;3.55;58.64
65376;BME280;51976;47.332;9.404;2023-02-03T03:29:50;93999.41;;;3.58;58.31
65376;BME280;51976;47.332;9.404;2023-02-03T03:32:17;93964.38;;;3.54;57.78
65376;BME280;51976;47.332;9.404;2023-02-03T03:34:43;93994.88;;;3.65;57.71
65376;BME280;51976;47.332;9.404;2023-02-03T03:37:35;93978.44;;;3.74;57.42
65376;BME280;51976;47.332;9.404;2023-02-03T03:40:11;93972.53;;;3.66;57.22
65376;BME280;51976;47.332;9.404;2023-02-03T03:42:47;93972.69;;;3.78;57.02
65376;BME280;51976;47.332;9.404;2023-02-03T03:45:36;93951.41;;;3.64;57.05
65376;BME280;51976;47.332;9.404;2023-02-03T03:48:15;93908.88;;;3.38;57.38
65376;BME280;51976;47.332;9.404;2023-02-03T03:50:49;93927.63;;;3.63;57.10
65376;BME280;51976;47.332;9.404;2023-02-03T03:53:17;93967.59;;;3.69;56.99
65376;BME280;51976;47.332;9.404;2023-02-03T03:55:47;93953.72;;;3.54;57.22
65376;BME280;51976;47.332;9.404;2023-02-03T03:58:18;93960.91;;;3.47;57.28
65376;BME280;51976;47.332;9.404;2023-02-03T04:00:46;94008.06;;;3.53;57.77
65376;BME280;51976;47.332;9.404;2023-02-03T04:03:19;94002.28;;;3.56;58.02
65376;BME280;51976;47.332;9.404;2023-02-03T04:05:49;93980.19;;;3.49;57.97
65376;BME280;51976;47.332;9.404;2023-02-03T04:08:14;93943.16;;;3.28;58.54
65376;BME280;51976;47.332;9.404;2023-02-03T04:10:41;93968.09;;;3.47;58.03
65376;BME280;51976;47.332;9.404;2023-02-03T04:13:08;93936.13;;;3.40;57.68
65376;BME280;51976;47.332;9.404;2023-02-03T04:15:35;93940.41;;;3.54;57.36
65376;BME280;51976;47.332;9.404;2023-02-03T04:18:01;93918.28;;;3.47;57.31
65376;BME280;51976;47.332;9.404;2023-02-03T04:20:28;93936.63;;;3.68;56.30
65376;BME280;51976;47.332;9.404;2023-02-03T04:22:53;93940.72;;;3.64;55.97
65376;BME280;51976;47.332;9.404;2023-02-03T04:25:19;93919.81;;;3.61;55.89
65376;BME280;51976;47.332;9.404;2023-02-03T04:27:45;93897.56;;;3.49;55.77
65376;BME280;51976;47.332;9.404;2023-02-03T04:30:11;93934.59;;;3.64;55.83
65376;BME280;51976;47.332;9.404;2023-02-03T04:32:36;93946.50;;;3.61;55.74
65376;BME280;51976;47.332;9.404;2023-02-03T04:35:03;93950.97;;;3.67;55.42
65376;BME280;51976;47.332;9.404;2023-02-03T04:37:29;93939.50;;;3.67;55.35
65376;BME280;51976;47.332;9.404;2023-02-03T04:39:55;93935.63;;;3.63;55.33
65376;BME280;51976;47.332;9.404;2023-02-03T04:42:21;93919.91;;;3.48;55.64
65376;BME280;51976;47.332;9.404;2023-02-03T04:44:46;93935.91;;;3.48;56.10
65376;BME280;51976;47.332;9.404;2023-02-03T04:47:12;93944.75;;;3.42;56.91
65376;BME280;51976;47.332;9.404;2023-02-03T04:49:38;93950.88;;;3.43;57.32
65376;BME280;51976;47.332;9.404;2023-02-03T04:52:04;93921.25;;;3.19;57.74
65376;BME280;51976;47.332;9.404;2023-02-03T04:54:29;93910.81;;;3.11;58.05
65376;BME280;51976;47.332;9.404;2023-02-03T04:56:55;93937.25;;;3.13;58.57
65376;BME280;51976;47.332;9.404;2023-02-03T04:59:20;93951.81;;;3.03;59.06
65376;BME280;51976;47.332;9.404;2023-02-03T05:01:45;93962.72;;;2.95;58.84
65376;BME280;51976;47.332;9.404;2023-02-03T05:04:11;93912.19;;;2.62;58.94
65376;BME280;51976;47.332;9.404;2023-02-03T05:06:36;93970.72;;;2.89;59.02
65376;BME280;51976;47.332;9.404;2023-02-03T05:09:02;93984.44;;;2.99;59.22
65376;BME280;51976;47.332;9.404;2023-02-03T05:11:28;93988.13;;;2.91;59.53
65376;BME280;51976;47.332;9.404;2023-02-03T05:13:53;94010.88;;;2.87;59.77
65376;BME280;51976;47.332;9.404;2023-02-03T05:16:18;94012.72;;;2.80;60.61
65376;BME280;51976;47.332;9.404;2023-02-03T05:18:44;93980.38;;;2.70;61.00
65376;BME280;51976;47.332;9.404;2023-02-03T05:21:09;93967.69;;;2.72;61.07
65376;BME280;51976;47.332;9.404;2023-02-03T05:23:35;93969.53;;;2.65;61.06
65376;BME280;51976;47.332;9.404;2023-02-03T05:26:00;94001.03;;;2.94;60.83
65376;BME280;51976;47.332;9.404;2023-02-03T05:28:26;94005.56;;;2.74;61.29
65376;BME280;51976;47.332;9.404;2023-02-03T05:30:51;94024.63;;;2.71;61.70
65376;BME280;51976;47.332;9.404;2023-02-03T05:33:17;94024.22;;;2.67;62.07
65376;BME280;51976;47.332;9.404;2023-02-03T05:35:42;94025.44;;;2.65;62.39
65376;BME280;51976;47.332;9.404;2023-02-03T05:38:08;94005.97;;;2.51;62.32
65376;BME280;51976;47.332;9.404;2023-02-03T05:40:33;94002.91;;;2.54;62.29
65376;BME280;51976;47.332;9.404;2023-02-03T05:43:19;94045.31;;;2.69;62.38
65376;BME280;51976;47.332;9.404;2023-02-03T05:45:44;94040.38;;;2.40;62.90
65376;BME280;51976;47.332;9.404;2023-02-03T05:48:10;94045.28;;;2.56;62.26
65376;BME280;51976;47.332;9.404;2023-02-03T05:50:36;94019.28;;;2.58;62.23
65376;BME280;51976;47.332;9.404;2023-02-03T05:53:03;94037.06;;;2.31;62.67
65376;BME280;51976;47.332;9.404;2023-02-03T05:55:29;94055.09;;;2.29;62.86
65376;BME280;51976;47.332;9.404;2023-02-03T05:57:55;94026.81;;;2.21;62.42
65376;BME280;51976;47.332;9.404;2023-02-03T06:00:21;94052.06;;;2.45;61.35
65376;BME280;51976;47.332;9.404;2023-02-03T06:02:51;94045.69;;;2.40;61.21
65376;BME280;51976;47.332;9.404;2023-02-03T06:05:17;94055.53;;;2.39;61.48
65376;BME280;51976;47.332;9.404;2023-02-03T06:07:42;94041.63;;;2.44;61.46
65376;BME280;51976;47.332;9.404;2023-02-03T06:10:08;94016.97;;;2.02;62.30
65376;BME280;51976;47.332;9.404;2023-02-03T06:12:33;94008.78;;;2.03;62.78
65376;BME280;51976;47.332;9.404;2023-02-03T06:14:58;94001.41;;;1.99;62.45
65376;BME280;51976;47.332;9.404;2023-02-03T06:17:24;93963.28;;;1.65;62.56
65376;BME280;51976;47.332;9.404;2023-02-03T06:19:49;94001.41;;;1.99;62.39
65376;BME280;51976;47.332;9.404;2023-02-03T06:22:15;94003.50;;;2.10;62.13
65376;BME280;51976;47.332;9.404;2023-02-03T06:24:40;93991.84;;;2.11;62.26
65376;BME280;51976;47.332;9.404;2023-02-03T06:27:05;93990.34;;;1.82;63.00
65376;BME280;51976;47.332;9.404;2023-02-03T06:29:31;93991.91;;;1.57;63.78
65376;BME280;51976;47.332;9.404;2023-02-03T06:31:56;93984.69;;;1.44;63.94
65376;BME280;51976;47.332;9.404;2023-02-03T06:34:21;94033.69;;;1.83;63.86
65376;BME280;51976;47.332;9.404;2023-02-03T06:36:47;94032.09;;;1.95;63.42
65376;BME280;51976;47.332;9.404;2023-02-03T06:39:13;94004.69;;;1.94;63.27
65376;BME280;51976;47.332;9.404;2023-02-03T06:41:38;93999.56;;;1.93;63.84
65376;BME280;51976;47.332;9.404;2023-02-03T06:44:04;93961.22;;;1.48;63.96
65376;BME280;51976;47.332;9.404;2023-02-03T06:46:29;94012.97;;;1.65;64.00
65376;BME280;51976;47.332;9.404;2023-02-03T06:48:55;94014.25;;;1.76;63.82
65376;BME280;51976;47.332;9.404;2023-02-03T06:51:20;93997.66;;;1.67;63.43
65376;BME280;51976;47.332;9.404;2023-02-03T06:53:48;94022.66;;;1.79;63.40
65376;BME280;51976;47.332;9.404;2023-02-03T06:56:14;94036.94;;;1.72;63.33
65376;BME280;51976;47.332;9.404;2023-02-03T06:58:39;94050.84;;;1.74;63.20
65376;BME280;51976;47.332;9.404;2023-02-03T07:01:05;94061.28;;;1.75;63.18
65376;BME280;51976;47.332;9.404;2023-02-03T07:03:30;94056.75;;;1.62;63.47
65376;BME280;51976;47.332;9.404;2023-02-03T07:05:55;94024.00;;;1.55;63.48
65376;BME280;51976;47.332;9.404;2023-02-03T07:08:21;94041.81;;;1.61;63.77
65376;BME280;51976;47.332;9.404;2023-02-03T07:10:46;94063.31;;;1.73;63.64
65376;BME280;51976;47.332;9.404;2023-02-03T07:13:12;94042.88;;;1.74;63.01
65376;BME280;51976;47.332;9.404;2023-02-03T07:15:37;94069.50;;;1.87;63.24
65376;BME280;51976;47.332;9.404;2023-02-03T07:18:03;94055.28;;;1.60;63.72
65376;BME280;51976;47.332;9.404;2023-02-03T07:20:28;94019.06;;;1.52;63.39
65376;BME280;51976;47.332;9.404;2023-02-03T07:22:55;94079.38;;;2.06;62.57
65376;BME280;51976;47.332;9.404;2023-02-03T07:25:21;94057.25;;;1.86;62.17
65376;BME280;51976;47.332;9.404;2023-02-03T07:27:47;94085.44;;;1.80;62.97
65376;BME280;51976;47.332;9.404;2023-02-03T07:30:12;94072.78;;;1.95;62.56
65376;BME280;51976;47.332;9.404;2023-02-03T07:32:38;94100.56;;;1.80;63.11
65376;BME280;51976;47.332;9.404;2023-02-03T07:35:03;94079.94;;;1.88;63.13
65376;BME280;51976;47.332;9.404;2023-02-03T07:37:29;94036.78;;;1.86;62.25
65376;BME280;51976;47.332;9.404;2023-02-03T07:39:54;94074.84;;;1.87;62.37
65376;BME280;51976;47.332;9.404;2023-02-03T07:42:20;94072.47;;;2.18;62.06
65376;BME280;51976;47.332;9.404;2023-02-03T07:44:45;94010.16;;;1.73;61.85
65376;BME280;51976;47.332;9.404;2023-02-03T07:47:10;94060.41;;;2.29;61.30
65376;BME280;51976;47.332;9.404;2023-02-03T07:49:36;94067.81;;;2.53;60.59
65376;BME280;51976;47.332;9.404;2023-02-03T07:52:01;94024.19;;;2.34;60.32
65376;BME280;51976;47.332;9.404;2023-02-03T07:54:26;94048.56;;;2.38;60.35
65376;BME280;51976;47.332;9.404;2023-02-03T07:56:52;94043.44;;;2.76;58.79
65376;BME280;51976;47.332;9.404;2023-02-03T07:59:18;94052.47;;;2.82;58.89
65376;BME280;51976;47.332;9.404;2023-02-03T08:01:44;94026.47;;;2.57;58.78
65376;BME280;51976;47.332;9.404;2023-02-03T08:04:09;94062.44;;;2.27;59.82
65376;BME280;51976;47.332;9.404;2023-02-03T08:06:37;94079.06;;;2.42;60.09
65376;BME280;51976;47.332;9.404;2023-02-03T08:09:02;94027.84;;;2.07;60.12
65376;BME280;51976;47.332;9.404;2023-02-03T08:11:27;93998.38;;;2.09;59.59
65376;BME280;51976;47.332;9.404;2023-02-03T08:13:53;94090.31;;;2.51;59.51
65376;BME280;51976;47.332;9.404;2023-02-03T08:16:18;94087.69;;;2.44;59.89
65376;BME280;51976;47.332;9.404;2023-02-03T08:18:44;94055.94;;;2.43;59.68
65376;BME280;51976;47.332;9.404;2023-02-03T08:21:10;94072.09;;;2.54;59.56
65376;BME280;51976;47.332;9.404;2023-02-03T08:23:35;94057.78;;;2.75;59.12
65376;BME280;51976;47.332;9.404;2023-02-03T08:26:00;94061.06;;;2.77;58.77
65376;BME280;51976;47.332;9.404;2023-02-03T08:28:26;94058.59;;;2.76;58.95
65376;BME280;51976;47.332;9.404;2023-02-03T08:30:51;94047.97;;;2.82;59.18
65376;BME280;51976;47.332;9.404;2023-02-03T08:33:17;94047.34;;;2.80;58.94
65376;BME280;51976;47.332;9.404;2023-02-03T08:35:47;94031.97;;;2.89;58.77
65376;BME280;51976;47.332;9.404;2023-02-03T08:38:12;94034.63;;;3.09;58.31
65376;BME280;51976;47.332;9.404;2023-02-03T08:40:38;94033.81;;;2.95;57.96
65376;BME280;51976;47.332;9.404;2023-02-03T08:43:03;93999.00;;;2.96;57.28
65376;BME280;51976;47.332;9.404;2023-02-03T08:45:29;94008.56;;;3.24;57.00
65376;BME280;51976;47.332;9.404;2023-02-03T08:47:54;93977.22;;;3.13;57.46
65376;BME280;51976;47.332;9.404;2023-02-03T08:50:19;94051.97;;;3.44;57.26
65376;BME280;51976;47.332;9.404;2023-02-03T08:52:45;94043.56;;;3.47;56.43
65376;BME280;51976;47.332;9.404;2023-02-03T08:55:11;94047.66;;;3.43;57.35
65376;BME280;51976;47.332;9.404;2023-02-03T08:57:36;94040.91;;;3.92;56.63
65376;BME280;51976;47.332;9.404;2023-02-03T09:00:03;94043.97;;;4.02;56.23
65376;BME280;51976;47.332;9.404;2023-02-03T09:02:29;94050.78;;;3.91;56.46
65376;BME280;51976;47.332;9.404;2023-02-03T09:04:54;94035.41;;;3.87;56.01
65376;BME280;51976;47.332;9.404;2023-02-03T09:07:20;94051.41;;;3.87;56.17
65376;BME280;51976;47.332;9.404;2023-02-03T09:09:45;94045.66;;;3.90;56.51
65376;BME280;51976;47.332;9.404;2023-02-03T09:12:19;94000.84;;;4.05;56.94
65376;BME280;51976;47.332;9.404;2023-02-03T09:17:14;93997.59;;;3.96;55.89
65376;BME280;51976;47.332;9.404;2023-02-03T09:19:40;94011.25;;;4.13;56.08
65376;BME280;51976;47.332;9.404;2023-02-03T09:22:05;94010.66;;;4.11;55.90
65376;BME280;51976;47.332;9.404;2023-02-03T09:24:31;94015.75;;;4.13;56.02
65376;BME280;51976;47.332;9.404;2023-02-03T09:26:56;94028.44;;;4.24;55.88
65376;BME280;51976;47.332;9.404;2023-02-03T09:29:21;94019.31;;;4.06;56.28
65376;BME280;51976;47.332;9.404;2023-02-03T09:31:48;94028.97;;;4.07;55.78
65376;BME280;51976;47.332;9.404;2023-02-03T09:34:16;94017.84;;;4.11;55.49
65376;BME280;51976;47.332;9.404;2023-02-03T09:36:42;94003.44;;;4.18;55.80
65376;BME280;51976;47.332;9.404;2023-02-03T09:39:07;93990.22;;;4.30;55.31
65376;BME280;51976;47.332;9.404;2023-02-03T09:42:00;93992.75;;;4.50;55.40
65376;BME280;51976;47.332;9.404;2023-02-03T09:45:21;93991.72;;;4.75;54.93
65376;BME280;51976;47.332;9.404;2023-02-03T09:47:23;93999.13;;;4.49;55.17
65376;BME280;51976;47.332;9.404;2023-02-03T09:49:55;93986.19;;;4.46;54.69
65376;BME280;51976;47.332;9.404;2023-02-03T09:52:25;94000.50;;;4.58;54.37
65376;BME280;51976;47.332;9.404;2023-02-03T09:55:03;93982.28;;;4.73;54.04
65376;BME280;51976;47.332;9.404;2023-02-03T09:57:36;93986.28;;;4.64;53.76
65376;BME280;51976;47.332;9.404;2023-02-03T10:00:15;93968.63;;;4.63;54.23
65376;BME280;51976;47.332;9.404;2023-02-03T10:03:06;93974.78;;;5.25;52.62
65376;BME280;51976;47.332;9.404;2023-02-03T10:05:46;93967.25;;;4.97;53.07
65376;BME280;51976;47.332;9.404;2023-02-03T10:08:35;93974.47;;;4.96;53.11
65376;BME280;51976;47.332;9.404;2023-02-03T10:11:37;93986.88;;;4.91;53.51
65376;BME280;51976;47.332;9.404;2023-02-03T10:14:22;93973.03;;;4.94;54.29
65376;BME280;51976;47.332;9.404;2023-02-03T10:19:54;93954.81;;;4.91;54.04
65376;BME280;51976;47.332;9.404;2023-02-03T10:22:24;93993.59;;;4.93;54.19
65376;BME280;51976;47.332;9.404;2023-02-03T10:25:23;94002.81;;;4.72;54.10
65376;BME280;51976;47.332;9.404;2023-02-03T10:27:52;94001.03;;;4.66;54.50
65376;BME280;51976;47.332;9.404;2023-02-03T10:30:23;93999.34;;;4.72;54.29
65376;BME280;51976;47.332;9.404;2023-02-03T10:32:52;93999.78;;;4.69;54.08
65376;BME280;51976;47.332;9.404;2023-02-03T10:38:04;93994.00;;;4.72;54.19
65376;BME280;51976;47.332;9.404;2023-02-03T10:40:35;93993.50;;;5.06;54.19
65376;BME280;51976;47.332;9.404;2023-02-03T10:43:01;93986.13;;;5.02;53.82
65376;BME280;51976;47.332;9.404;2023-02-03T10:45:46;93988.47;;;5.17;53.99
65376;BME280;51976;47.332;9.404;2023-02-03T10:48:15;93979.41;;;5.36;53.77
65376;BME280;51976;47.332;9.404;2023-02-03T10:50:45;93961.06;;;5.58;52.74
65376;BME280;51976;47.332;9.404;2023-02-03T10:53:26;93957.78;;;5.56;52.83
65376;BME280;51976;47.332;9.404;2023-02-03T10:56:08;93939.25;;;5.42;52.71
65376;BME280;51976;47.332;9.404;2023-02-03T10:58:36;93949.19;;;5.35;52.82
65376;BME280;51976;47.332;9.404;2023-02-03T11:01:10;93942.28;;;5.28;52.95
65376;BME280;51976;47.332;9.404;2023-02-03T11:03:37;93937.38;;;5.43;52.71
65376;BME280;51976;47.332;9.404;2023-02-03T11:06:11;93940.09;;;5.55;52.16
65376;BME280;51976;47.332;9.404;2023-02-03T11:08:45;93940.06;;;5.43;52.24
65376;BME280;51976;47.332;9.404;2023-02-03T11:11:20;93935.88;;;5.65;52.24
65376;BME280;51976;47.332;9.404;2023-02-03T11:13:51;93933.31;;;5.89;51.92
65376;BME280;51976;47.332;9.404;2023-02-03T11:16:18;93909.03;;;5.72;52.40
65376;BME280;51976;47.332;9.404;2023-02-03T11:18:53;93922.31;;;5.78;52.17
65376;BME280;51976;47.332;9.404;2023-02-03T11:21:32;93908.38;;;5.58;52.95
65376;BME280;51976;47.332;9.404;2023-02-03T11:24:19;93919.94;;;5.40;53.39
65376;BME280;51976;47.332;9.404;2023-02-03T11:26:49;93916.63;;;5.57;52.77
65376;BME280;51976;47.332;9.404;2023-02-03T11:29:20;93916.09;;;5.48;52.54
65376;BME280;51976;47.332;9.404;2023-02-03T11:31:49;93912.97;;;5.51;52.61
65376;BME280;51976;47.332;9.404;2023-02-03T11:34:18;93918.66;;;5.43;52.89
65376;BME280;51976;47.332;9.404;2023-02-03T11:36:45;93910.31;;;5.51;52.98
65376;BME280;51976;47.332;9.404;2023-02-03T11:39:22;93913.94;;;5.57;52.93
65376;BME280;51976;47.332;9.404;2023-02-03T11:41:49;93898.31;;;5.42;53.35
65376;BME280;51976;47.332;9.404;2023-02-03T11:44:25;93930.91;;;5.32;53.43
65376;BME280;51976;47.332;9.404;2023-02-03T11:47:08;93940.19;;;5.12;53.82
65376;BME280;51976;47.332;9.404;2023-02-03T11:50:15;93948.81;;;5.32;53.70
65376;BME280;51976;47.332;9.404;2023-02-03T11:52:52;93945.53;;;5.12;53.92
65376;BME280;51976;47.332;9.404;2023-02-03T11:55:46;93936.50;;;5.13;54.07
65376;BME280;51976;47.332;9.404;2023-02-03T11:58:42;93934.78;;;5.18;53.67
65376;BME280;51976;47.332;9.404;2023-02-03T12:07:38;93925.94;;;5.36;53.96
65376;BME280;51976;47.332;9.404;2023-02-03T12:10:28;93932.31;;;5.35;53.46
65376;BME280;51976;47.332;9.404;2023-02-03T12:16:12;93919.47;;;5.25;53.81
65376;BME280;51976;47.332;9.404;2023-02-03T12:19:00;93915.25;;;5.36;54.14
65376;BME280;51976;47.332;9.404;2023-02-03T12:21:42;93884.59;;;5.50;54.11
65376;BME280;51976;47.332;9.404;2023-02-03T12:24:31;93900.66;;;5.50;53.78
65376;BME280;51976;47.332;9.404;2023-02-03T12:27:21;93913.91;;;5.27;53.96
65376;BME280;51976;47.332;9.404;2023-02-03T12:29:56;93931.13;;;5.31;53.62
65376;BME280;51976;47.332;9.404;2023-02-03T12:32:33;93946.34;;;5.30;53.93
65376;BME280;51976;47.332;9.404;2023-02-03T12:35:21;93923.72;;;5.33;53.52
65376;BME280;51976;47.332;9.404;2023-02-03T12:37:57;93903.50;;;5.37;53.65
65376;BME280;51976;47.332;9.404;2023-02-03T12:40:47;93893.78;;;5.42;53.81
65376;BME280;51976;47.332;9.404;2023-02-03T12:43:41;93886.00;;;5.53;53.88
65376;BME280;51976;47.332;9.404;2023-02-03T12:46:16;93882.22;;;5.60;54.06
65376;BME280;51976;47.332;9.404;2023-02-03T12:48:55;93878.94;;;5.58;54.32
65376;BME280;51976;47.332;9.404;2023-02-03T12:51:35;93862.81;;;5.35;54.46
65376;BME280;51976;47.332;9.404;2023-02-03T12:54:17;93854.19;;;5.33;54.39
65376;BME280;51976;47.332;9.404;2023-02-03T12:56:48;93844.25;;;5.40;54.31
65376;BME280;51976;47.332;9.404;2023-02-03T12:59:21;93815.94;;;5.32;54.39
65376;BME280;51976;47.332;9.404;2023-02-03T13:01:54;93835.66;;;5.50;54.00
65376;BME280;51976;47.332;9.404;2023-02-03T13:04:33;93829.50;;;5.49;53.65
65376;BME280;51976;47.332;9.404;2023-02-03T13:07:08;93817.44;;;5.58;53.66
65376;BME280;51976;47.332;9.404;2023-02-03T13:09:46;93793.75;;;5.32;54.08
65376;BME280;51976;47.332;9.404;2023-02-03T13:12:35;93793.81;;;5.55;53.94
65376;BME280;51976;47.332;9.404;2023-02-03T13:15:23;93800.06;;;5.49;54.12
65376;BME280;51976;47.332;9.404;2023-02-03T13:17:56;93803.25;;;5.58;53.55
65376;BME280;51976;47.332;9.404;2023-02-03T13:20:27;93789.72;;;5.41;53.54
65376;BME280;51976;47.332;9.404;2023-02-03T13:22:56;93808.81;;;5.26;53.55
65376;BME280;51976;47.332;9.404;2023-02-03T13:25:26;93803.03;;;5.29;53.04
65376;BME280;51976;47.332;9.404;2023-02-03T13:28:20;93809.03;;;5.25;53.93
65376;BME280;51976;47.332;9.404;2023-02-03T13:31:17;93804.72;;;5.42;54.13
65376;BME280;51976;47.332;9.404;2023-02-03T13:34:04;93801.59;;;5.45;54.32
65376;BME280;51976;47.332;9.404;2023-02-03T13:40:04;93793.28;;;5.35;53.68
65376;BME280;51976;47.332;9.404;2023-02-03T13:42:38;93789.94;;;5.39;53.74
65376;BME280;51976;47.332;9.404;2023-02-03T13:45:26;93793.56;;;5.45;54.09
65376;BME280;51976;47.332;9.404;2023-02-03T13:47:56;93776.06;;;5.31;54.05
65376;BME280;51976;47.332;9.404;2023-02-03T13:50:28;93800.13;;;5.31;54.57